sensor_id;sensor_type;location;lat;lon;timestamp;P1;durP1;ratioP1;P2;durP2;ratioP2
28796;SDS011;24974;54.444;18.560;2023-04-25T00:01:52;6.78;;;6.18;;
28796;SDS011;24974;54.444;18.560;2023-04-25T00:04:23;5.97;;;5.38;;
28796;SDS011;24974;54.444;18.560;2023-04-25T00:06:53;6.10;;;5.50;;
28796;SDS011;24974;54.444;18.560;2023-04-25T00:09:24;6.63;;;6.03;;
28796;SDS011;24974;54.444;18.560;2023-04-25T00:11:55;7.60;;;5.78;;
28796;SDS011;24974;54.444;18.560;2023-04-25T00:14:26;6.95;;;5.93;;
28796;SDS011;24974;54.444;18.560;2023-04-25T00:16:58;5.97;;;5.45;;
28796;SDS011;24974;54.444;18.560;2023-04-25T00:19:29;7.35;;;5.38;;
28796;SDS011;24974;54.444;18.560;2023-04-25T00:22:00;7.95;;;5.78;;
28796;SDS011;24974;54.444;18.560;2023-04-25T00:24:31;6.30;;;5.70;;
28796;SDS011;24974;54.444;18.560;2023-04-25T00:27:02;8.25;;;6.10;;
28796;SDS011;24974;54.444;18.560;2023-04-25T00:29:33;6.32;;;5.65;;
28796;SDS011;24974;54.444;18.560;2023-04-25T00:32:04;7.57;;;5.43;;
28796;SDS011;24974;54.444;18.560;2023-04-25T00:34:35;5.78;;;5.28;;
28796;SDS011;24974;54.444;18.560;2023-04-25T00:37:06;5.35;;;4.85;;
28796;SDS011;24974;54.444;18.560;2023-04-25T00:39:37;5.47;;;4.97;;
28796;SDS011;24974;54.444;18.560;2023-04-25T00:42:08;7.20;;;5.20;;
28796;SDS011;24974;54.444;18.560;2023-04-25T00:44:39;5.40;;;4.90;;
28796;SDS011;24974;54.444;18.560;2023-04-25T00:47:10;5.10;;;4.70;;
28796;SDS011;24974;54.444;18.560;2023-04-25T00:49:41;6.28;;;5.22;;
28796;SDS011;24974;54.444;18.560;2023-04-25T00:52:12;4.75;;;4.35;;
28796;SDS011;24974;54.444;18.560;2023-04-25T00:54:43;4.55;;;4.15;;
28796;SDS011;24974;54.444;18.560;2023-04-25T00:57:14;4.38;;;3.97;;
28796;SDS011;24974;54.444;18.560;2023-04-25T00:59:45;5.10;;;4.68;;
28796;SDS011;24974;54.444;18.560;2023-04-25T01:02:17;4.72;;;4.32;;
28796;SDS011;24974;54.444;18.560;2023-04-25T01:04:48;4.72;;;4.32;;
28796;SDS011;24974;54.444;18.560;2023-04-25T01:07:19;4.60;;;4.20;;
28796;SDS011;24974;54.444;18.560;2023-04-25T01:09:51;4.40;;;4.00;;
28796;SDS011;24974;54.444;18.560;2023-04-25T01:12:23;4.32;;;3.92;;
28796;SDS011;24974;54.444;18.560;2023-04-25T01:14:54;5.05;;;4.65;;
28796;SDS011;24974;54.444;18.560;2023-04-25T01:17:25;4.47;;;4.07;;
28796;SDS011;24974;54.444;18.560;2023-04-25T01:19:57;5.40;;;4.88;;
28796;SDS011;24974;54.444;18.560;2023-04-25T01:22:28;5.30;;;4.78;;
28796;SDS011;24974;54.444;18.560;2023-04-25T01:24:59;5.63;;;5.13;;
28796;SDS011;24974;54.444;18.560;2023-04-25T01:27:31;6.53;;;5.32;;
28796;SDS011;24974;54.444;18.560;2023-04-25T01:30:02;7.22;;;4.82;;
28796;SDS011;24974;54.444;18.560;2023-04-25T01:32:35;6.50;;;5.70;;
28796;SDS011;24974;54.444;18.560;2023-04-25T01:35:09;5.45;;;5.03;;
28796;SDS011;24974;54.444;18.560;2023-04-25T01:37:42;6.32;;;5.72;;
28796;SDS011;24974;54.444;18.560;2023-04-25T01:40:15;6.53;;;5.95;;
28796;SDS011;24974;54.444;18.560;2023-04-25T01:42:47;8.30;;;6.47;;
28796;SDS011;24974;54.444;18.560;2023-04-25T01:45:19;9.15;;;6.63;;
28796;SDS011;24974;54.444;18.560;2023-04-25T01:47:50;10.43;;;6.82;;
28796;SDS011;24974;54.444;18.560;2023-04-25T01:50:21;7.93;;;6.88;;
28796;SDS011;24974;54.444;18.560;2023-04-25T01:52:52;10.18;;;7.20;;
28796;SDS011;24974;54.444;18.560;2023-04-25T01:55:24;7.53;;;6.80;;
28796;SDS011;24974;54.444;18.560;2023-04-25T01:58:13;8.80;;;7.53;;
28796;SDS011;24974;54.444;18.560;2023-04-25T02:01:03;8.25;;;7.07;;
28796;SDS011;24974;54.444;18.560;2023-04-25T02:03:41;8.07;;;7.38;;
28796;SDS011;24974;54.444;18.560;2023-04-25T02:06:18;8.05;;;7.35;;
28796;SDS011;24974;54.444;18.560;2023-04-25T02:08:51;8.45;;;7.32;;
28796;SDS011;24974;54.444;18.560;2023-04-25T02:11:21;8.07;;;7.38;;
28796;SDS011;24974;54.444;18.560;2023-04-25T02:14:11;8.75;;;7.93;;
28796;SDS011;24974;54.444;18.560;2023-04-25T02:17:01;8.30;;;7.50;;
28796;SDS011;24974;54.444;18.560;2023-04-25T02:19:34;9.38;;;8.38;;
28796;SDS011;24974;54.444;18.560;2023-04-25T02:22:05;9.00;;;8.20;;
28796;SDS011;24974;54.444;18.560;2023-04-25T02:24:36;10.15;;;8.55;;
28796;SDS011;24974;54.444;18.560;2023-04-25T02:27:07;9.23;;;8.30;;
28796;SDS011;24974;54.444;18.560;2023-04-25T02:29:39;10.85;;;8.98;;
28796;SDS011;24974;54.444;18.560;2023-04-25T02:32:10;10.88;;;9.73;;
28796;SDS011;24974;54.444;18.560;2023-04-25T02:34:41;10.98;;;9.98;;
28796;SDS011;24974;54.444;18.560;2023-04-25T02:37:12;12.15;;;9.95;;
28796;SDS011;24974;54.444;18.560;2023-04-25T02:39:43;11.95;;;9.32;;
28796;SDS011;24974;54.444;18.560;2023-04-25T02:42:13;11.88;;;9.50;;
28796;SDS011;24974;54.444;18.560;2023-04-25T02:44:44;11.20;;;10.15;;
28796;SDS011;24974;54.444;18.560;2023-04-25T02:47:15;10.63;;;9.63;;
28796;SDS011;24974;54.444;18.560;2023-04-25T02:49:47;10.20;;;8.90;;
28796;SDS011;24974;54.444;18.560;2023-04-25T02:52:18;10.68;;;9.63;;
28796;SDS011;24974;54.444;18.560;2023-04-25T02:54:57;11.52;;;10.48;;
28796;SDS011;24974;54.444;18.560;2023-04-25T02:57:30;11.75;;;10.30;;
28796;SDS011;24974;54.444;18.560;2023-04-25T03:00:00;10.23;;;9.25;;
28796;SDS011;24974;54.444;18.560;2023-04-25T03:02:31;12.00;;;10.77;;
28796;SDS011;24974;54.444;18.560;2023-04-25T03:05:02;11.95;;;10.80;;
28796;SDS011;24974;54.444;18.560;2023-04-25T03:07:34;12.88;;;11.07;;
28796;SDS011;24974;54.444;18.560;2023-04-25T03:10:07;11.90;;;10.70;;
28796;SDS011;24974;54.444;18.560;2023-04-25T03:12:39;13.63;;;11.32;;
28796;SDS011;24974;54.444;18.560;2023-04-25T03:15:10;11.60;;;10.50;;
28796;SDS011;24974;54.444;18.560;2023-04-25T03:17:41;12.30;;;11.00;;
28796;SDS011;24974;54.444;18.560;2023-04-25T03:20:13;12.20;;;10.90;;
28796;SDS011;24974;54.444;18.560;2023-04-25T03:22:44;11.85;;;10.75;;
28796;SDS011;24974;54.444;18.560;2023-04-25T03:25:15;11.38;;;10.27;;
28796;SDS011;24974;54.444;18.560;2023-04-25T03:27:47;12.75;;;11.23;;
28796;SDS011;24974;54.444;18.560;2023-04-25T03:30:18;15.52;;;14.18;;
28796;SDS011;24974;54.444;18.560;2023-04-25T03:32:49;13.50;;;12.35;;
28796;SDS011;24974;54.444;18.560;2023-04-25T03:35:21;10.98;;;9.88;;
28796;SDS011;24974;54.444;18.560;2023-04-25T03:37:55;13.15;;;11.82;;
28796;SDS011;24974;54.444;18.560;2023-04-25T03:40:31;12.32;;;10.23;;
28796;SDS011;24974;54.444;18.560;2023-04-25T03:43:28;11.05;;;9.90;;
28796;SDS011;24974;54.444;18.560;2023-04-25T03:46:05;11.07;;;10.02;;
28796;SDS011;24974;54.444;18.560;2023-04-25T03:48:35;10.07;;;9.02;;
28796;SDS011;24974;54.444;18.560;2023-04-25T03:51:07;10.13;;;9.23;;
28796;SDS011;24974;54.444;18.560;2023-04-25T03:53:41;10.27;;;9.10;;
28796;SDS011;24974;54.444;18.560;2023-04-25T03:56:32;9.48;;;8.50;;
28796;SDS011;24974;54.444;18.560;2023-04-25T03:59:12;10.25;;;9.15;;
28796;SDS011;24974;54.444;18.560;2023-04-25T04:01:43;8.68;;;7.88;;
28796;SDS011;24974;54.444;18.560;2023-04-25T04:04:14;13.20;;;11.95;;
28796;SDS011;24974;54.444;18.560;2023-04-25T04:06:45;9.38;;;8.40;;
28796;SDS011;24974;54.444;18.560;2023-04-25T04:09:27;10.52;;;9.63;;
28796;SDS011;24974;54.444;18.560;2023-04-25T04:11:59;13.70;;;12.48;;
28796;SDS011;24974;54.444;18.560;2023-04-25T04:14:35;10.30;;;9.02;;
28796;SDS011;24974;54.444;18.560;2023-04-25T04:17:06;9.45;;;8.55;;
28796;SDS011;24974;54.444;18.560;2023-04-25T04:19:37;11.35;;;10.20;;
28796;SDS011;24974;54.444;18.560;2023-04-25T04:22:18;10.30;;;8.05;;
28796;SDS011;24974;54.444;18.560;2023-04-25T04:24:50;10.23;;;9.10;;
28796;SDS011;24974;54.444;18.560;2023-04-25T04:27:26;9.35;;;8.45;;
28796;SDS011;24974;54.444;18.560;2023-04-25T04:30:12;11.10;;;9.30;;
28796;SDS011;24974;54.444;18.560;2023-04-25T04:32:56;9.15;;;8.25;;
28796;SDS011;24974;54.444;18.560;2023-04-25T04:35:27;8.77;;;7.97;;
28796;SDS011;24974;54.444;18.560;2023-04-25T04:37:58;9.98;;;8.90;;
28796;SDS011;24974;54.444;18.560;2023-04-25T04:40:32;8.88;;;8.07;;
28796;SDS011;24974;54.444;18.560;2023-04-25T04:43:13;8.73;;;7.88;;
28796;SDS011;24974;54.444;18.560;2023-04-25T04:46:05;8.93;;;8.02;;
28796;SDS011;24974;54.444;18.560;2023-04-25T04:49:01;9.05;;;8.15;;
28796;SDS011;24974;54.444;18.560;2023-04-25T04:51:47;9.10;;;8.20;;
28796;SDS011;24974;54.444;18.560;2023-04-25T04:54:40;9.23;;;8.32;;
28796;SDS011;24974;54.444;18.560;2023-04-25T04:57:36;9.20;;;8.38;;
28796;SDS011;24974;54.444;18.560;2023-04-25T05:00:32;9.80;;;8.45;;
28796;SDS011;24974;54.444;18.560;2023-04-25T05:03:32;11.82;;;9.10;;
28796;SDS011;24974;54.444;18.560;2023-04-25T05:06:21;9.52;;;8.57;;
28796;SDS011;24974;54.444;18.560;2023-04-25T05:09:15;9.93;;;8.35;;
28796;SDS011;24974;54.444;18.560;2023-04-25T05:12:04;9.88;;;8.45;;
28796;SDS011;24974;54.444;18.560;2023-04-25T05:14:59;10.32;;;9.25;;
28796;SDS011;24974;54.444;18.560;2023-04-25T05:17:53;9.40;;;8.18;;
28796;SDS011;24974;54.444;18.560;2023-04-25T05:20:45;9.68;;;8.57;;
28796;SDS011;24974;54.444;18.560;2023-04-25T05:23:16;9.88;;;8.25;;
28796;SDS011;24974;54.444;18.560;2023-04-25T05:26:13;9.80;;;8.73;;
28796;SDS011;24974;54.444;18.560;2023-04-25T05:28:57;7.80;;;7.10;;
28796;SDS011;24974;54.444;18.560;2023-04-25T05:32:06;9.20;;;7.47;;
28796;SDS011;24974;54.444;18.560;2023-04-25T05:34:38;8.98;;;7.97;;
28796;SDS011;24974;54.444;18.560;2023-04-25T05:37:14;9.15;;;8.35;;
28796;SDS011;24974;54.444;18.560;2023-04-25T05:39:56;10.80;;;8.27;;
28796;SDS011;24974;54.444;18.560;2023-04-25T05:42:46;9.85;;;7.95;;
28796;SDS011;24974;54.444;18.560;2023-04-25T05:45:32;28.38;;;26.10;;
28796;SDS011;24974;54.444;18.560;2023-04-25T05:48:21;9.35;;;7.60;;
28796;SDS011;24974;54.444;18.560;2023-04-25T05:51:15;10.07;;;7.70;;
28796;SDS011;24974;54.444;18.560;2023-04-25T05:54:08;9.60;;;7.68;;
28796;SDS011;24974;54.444;18.560;2023-04-25T05:56:40;10.60;;;8.10;;
28796;SDS011;24974;54.444;18.560;2023-04-25T05:59:11;12.73;;;8.00;;
28796;SDS011;24974;54.444;18.560;2023-04-25T06:01:42;8.00;;;7.00;;
28796;SDS011;24974;54.444;18.560;2023-04-25T06:04:13;9.20;;;7.45;;
28796;SDS011;24974;54.444;18.560;2023-04-25T06:06:44;8.35;;;6.70;;
28796;SDS011;24974;54.444;18.560;2023-04-25T06:09:15;8.07;;;7.32;;
28796;SDS011;24974;54.444;18.560;2023-04-25T06:11:45;8.50;;;6.57;;
28796;SDS011;24974;54.444;18.560;2023-04-25T06:14:16;18.50;;;5.78;;
28796;SDS011;24974;54.444;18.560;2023-04-25T06:16:52;11.30;;;6.18;;
28796;SDS011;24974;54.444;18.560;2023-04-25T06:19:22;8.27;;;5.70;;
28796;SDS011;24974;54.444;18.560;2023-04-25T06:21:54;12.23;;;5.80;;
28796;SDS011;24974;54.444;18.560;2023-04-25T06:24:25;8.88;;;6.72;;
28796;SDS011;24974;54.444;18.560;2023-04-25T06:26:56;12.35;;;6.40;;
28796;SDS011;24974;54.444;18.560;2023-04-25T06:29:27;8.15;;;5.75;;
28796;SDS011;24974;54.444;18.560;2023-04-25T06:31:58;6.40;;;5.57;;
28796;SDS011;24974;54.444;18.560;2023-04-25T06:34:29;12.25;;;5.68;;
28796;SDS011;24974;54.444;18.560;2023-04-25T06:37:01;8.73;;;6.05;;
28796;SDS011;24974;54.444;18.560;2023-04-25T06:39:31;6.97;;;5.75;;
28796;SDS011;24974;54.444;18.560;2023-04-25T06:42:02;8.35;;;6.43;;
28796;SDS011;24974;54.444;18.560;2023-04-25T06:44:53;8.65;;;6.30;;
28796;SDS011;24974;54.444;18.560;2023-04-25T06:47:25;6.95;;;6.00;;
28796;SDS011;24974;54.444;18.560;2023-04-25T06:49:56;11.20;;;6.72;;
28796;SDS011;24974;54.444;18.560;2023-04-25T06:52:27;6.88;;;5.78;;
28796;SDS011;24974;54.444;18.560;2023-04-25T06:54:58;6.18;;;5.60;;
28796;SDS011;24974;54.444;18.560;2023-04-25T06:57:48;7.60;;;5.53;;
28796;SDS011;24974;54.444;18.560;2023-04-25T07:00:45;6.18;;;5.57;;
28796;SDS011;24974;54.444;18.560;2023-04-25T07:03:16;7.25;;;5.15;;
28796;SDS011;24974;54.444;18.560;2023-04-25T07:05:47;6.07;;;4.70;;
28796;SDS011;24974;54.444;18.560;2023-04-25T07:08:18;9.23;;;4.95;;
28796;SDS011;24974;54.444;18.560;2023-04-25T07:10:49;5.93;;;5.32;;
28796;SDS011;24974;54.444;18.560;2023-04-25T07:13:20;9.60;;;5.32;;
28796;SDS011;24974;54.444;18.560;2023-04-25T07:15:51;8.00;;;4.85;;
28796;SDS011;24974;54.444;18.560;2023-04-25T07:18:24;7.30;;;5.15;;
28796;SDS011;24974;54.444;18.560;2023-04-25T07:20:55;7.05;;;4.43;;
28796;SDS011;24974;54.444;18.560;2023-04-25T07:23:27;8.18;;;4.60;;
28796;SDS011;24974;54.444;18.560;2023-04-25T07:25:59;9.27;;;4.40;;
28796;SDS011;24974;54.444;18.560;2023-04-25T07:28:30;5.88;;;3.95;;
28796;SDS011;24974;54.444;18.560;2023-04-25T07:31:01;5.03;;;3.92;;
28796;SDS011;24974;54.444;18.560;2023-04-25T07:33:33;5.30;;;3.70;;
28796;SDS011;24974;54.444;18.560;2023-04-25T07:36:04;4.60;;;3.72;;
28796;SDS011;24974;54.444;18.560;2023-04-25T07:38:35;6.30;;;3.97;;
28796;SDS011;24974;54.444;18.560;2023-04-25T07:41:06;7.05;;;3.70;;
28796;SDS011;24974;54.444;18.560;2023-04-25T07:43:37;9.20;;;5.78;;
28796;SDS011;24974;54.444;18.560;2023-04-25T07:46:09;7.80;;;4.03;;
28796;SDS011;24974;54.444;18.560;2023-04-25T07:48:40;5.00;;;3.60;;
28796;SDS011;24974;54.444;18.560;2023-04-25T07:51:11;3.88;;;3.50;;
28796;SDS011;24974;54.444;18.560;2023-04-25T07:53:43;6.72;;;3.50;;
28796;SDS011;24974;54.444;18.560;2023-04-25T07:56:17;8.88;;;3.67;;
28796;SDS011;24974;54.444;18.560;2023-04-25T07:58:51;5.10;;;3.50;;
28796;SDS011;24974;54.444;18.560;2023-04-25T08:01:23;3.60;;;2.92;;
28796;SDS011;24974;54.444;18.560;2023-04-25T08:04:01;4.80;;;3.13;;
28796;SDS011;24974;54.444;18.560;2023-04-25T08:07:04;3.10;;;2.78;;
28796;SDS011;24974;54.444;18.560;2023-04-25T08:09:43;6.28;;;3.30;;
28796;SDS011;24974;54.444;18.560;2023-04-25T08:12:22;4.30;;;2.85;;
28796;SDS011;24974;54.444;18.560;2023-04-25T08:14:53;3.00;;;2.70;;
28796;SDS011;24974;54.444;18.560;2023-04-25T08:17:27;4.15;;;2.90;;
28796;SDS011;24974;54.444;18.560;2023-04-25T08:19:58;3.10;;;2.80;;
28796;SDS011;24974;54.444;18.560;2023-04-25T08:22:33;3.00;;;2.60;;
28796;SDS011;24974;54.444;18.560;2023-04-25T08:25:27;5.38;;;2.72;;
28796;SDS011;24974;54.444;18.560;2023-04-25T08:27:58;3.03;;;2.75;;
28796;SDS011;24974;54.444;18.560;2023-04-25T08:30:30;3.58;;;2.60;;
28796;SDS011;24974;54.444;18.560;2023-04-25T08:33:01;2.95;;;2.65;;
28796;SDS011;24974;54.444;18.560;2023-04-25T08:35:51;4.47;;;2.88;;
28796;SDS011;24974;54.444;18.560;2023-04-25T08:38:23;3.60;;;2.63;;
28796;SDS011;24974;54.444;18.560;2023-04-25T08:40:54;3.95;;;2.40;;
28796;SDS011;24974;54.444;18.560;2023-04-25T08:43:28;3.60;;;2.90;;
28796;SDS011;24974;54.444;18.560;2023-04-25T08:46:01;4.43;;;2.78;;
28796;SDS011;24974;54.444;18.560;2023-04-25T08:48:43;6.15;;;2.60;;
28796;SDS011;24974;54.444;18.560;2023-04-25T08:51:21;2.92;;;2.45;;
28796;SDS011;24974;54.444;18.560;2023-04-25T08:53:55;2.67;;;2.47;;
28796;SDS011;24974;54.444;18.560;2023-04-25T08:56:29;3.75;;;2.58;;
28796;SDS011;24974;54.444;18.560;2023-04-25T08:59:06;2.88;;;2.28;;
28796;SDS011;24974;54.444;18.560;2023-04-25T09:01:40;3.65;;;2.40;;
28796;SDS011;24974;54.444;18.560;2023-04-25T09:04:12;4.30;;;2.65;;
28796;SDS011;24974;54.444;18.560;2023-04-25T09:06:43;3.70;;;2.90;;
28796;SDS011;24974;54.444;18.560;2023-04-25T09:09:14;3.97;;;2.38;;
28796;SDS011;24974;54.444;18.560;2023-04-25T09:11:46;2.75;;;2.42;;
28796;SDS011;24974;54.444;18.560;2023-04-25T09:14:19;3.03;;;2.38;;
28796;SDS011;24974;54.444;18.560;2023-04-25T09:17:14;2.63;;;2.38;;
28796;SDS011;24974;54.444;18.560;2023-04-25T09:19:53;2.67;;;2.45;;
28796;SDS011;24974;54.444;18.560;2023-04-25T09:22:33;2.33;;;2.13;;
28796;SDS011;24974;54.444;18.560;2023-04-25T09:25:08;7.15;;;3.00;;
28796;SDS011;24974;54.444;18.560;2023-04-25T09:27:53;4.05;;;2.53;;
28796;SDS011;24974;54.444;18.560;2023-04-25T09:30:33;5.53;;;2.50;;
28796;SDS011;24974;54.444;18.560;2023-04-25T09:33:10;5.82;;;2.60;;
28796;SDS011;24974;54.444;18.560;2023-04-25T09:35:45;5.28;;;2.97;;
28796;SDS011;24974;54.444;18.560;2023-04-25T09:38:27;3.53;;;2.65;;
28796;SDS011;24974;54.444;18.560;2023-04-25T09:41:04;4.80;;;2.75;;
28796;SDS011;24974;54.444;18.560;2023-04-25T09:43:44;2.95;;;2.17;;
28796;SDS011;24974;54.444;18.560;2023-04-25T09:46:17;4.60;;;2.33;;
28796;SDS011;24974;54.444;18.560;2023-04-25T09:48:55;3.95;;;2.45;;
28796;SDS011;24974;54.444;18.560;2023-04-25T09:51:33;3.47;;;2.53;;
28796;SDS011;24974;54.444;18.560;2023-04-25T09:54:05;2.92;;;2.67;;
28796;SDS011;24974;54.444;18.560;2023-04-25T09:56:44;4.18;;;2.33;;
28796;SDS011;24974;54.444;18.560;2023-04-25T09:59:21;2.90;;;2.60;;
28796;SDS011;24974;54.444;18.560;2023-04-25T10:01:53;5.05;;;2.67;;
28796;SDS011;24974;54.444;18.560;2023-04-25T10:04:35;5.22;;;2.67;;
28796;SDS011;24974;54.444;18.560;2023-04-25T10:07:27;3.03;;;2.47;;
28796;SDS011;24974;54.444;18.560;2023-04-25T10:10:02;2.40;;;2.20;;
28796;SDS011;24974;54.444;18.560;2023-04-25T10:12:34;3.75;;;1.75;;
28796;SDS011;24974;54.444;18.560;2023-04-25T10:15:05;3.03;;;1.92;;
28796;SDS011;24974;54.444;18.560;2023-04-25T10:17:38;2.17;;;2.03;;
28796;SDS011;24974;54.444;18.560;2023-04-25T10:20:10;2.45;;;2.22;;
28796;SDS011;24974;54.444;18.560;2023-04-25T10:22:42;2.75;;;2.17;;
28796;SDS011;24974;54.444;18.560;2023-04-25T10:25:15;2.38;;;2.05;;
28796;SDS011;24974;54.444;18.560;2023-04-25T10:27:47;3.40;;;1.95;;
28796;SDS011;24974;54.444;18.560;2023-04-25T10:30:21;3.22;;;2.30;;
28796;SDS011;24974;54.444;18.560;2023-04-25T10:32:52;3.08;;;2.40;;
28796;SDS011;24974;54.444;18.560;2023-04-25T10:35:27;3.40;;;2.10;;
28796;SDS011;24974;54.444;18.560;2023-04-25T10:38:11;2.80;;;2.40;;
28796;SDS011;24974;54.444;18.560;2023-04-25T10:43:42;11.88;;;2.72;;
28796;SDS011;24974;54.444;18.560;2023-04-25T10:46:16;4.85;;;2.85;;
28796;SDS011;24974;54.444;18.560;2023-04-25T10:48:53;4.90;;;3.22;;
28796;SDS011;24974;54.444;18.560;2023-04-25T10:51:30;5.55;;;3.30;;
28796;SDS011;24974;54.444;18.560;2023-04-25T10:56:38;4.85;;;3.05;;
28796;SDS011;24974;54.444;18.560;2023-04-25T10:59:12;5.63;;;3.65;;
28796;SDS011;24974;54.444;18.560;2023-04-25T11:01:48;11.52;;;3.78;;
28796;SDS011;24974;54.444;18.560;2023-04-25T11:04:25;7.03;;;3.75;;
28796;SDS011;24974;54.444;18.560;2023-04-25T11:10:08;4.32;;;3.65;;
28796;SDS011;24974;54.444;18.560;2023-04-25T11:12:39;6.72;;;5.00;;
28796;SDS011;24974;54.444;18.560;2023-04-25T11:15:18;3.47;;;3.08;;
28796;SDS011;24974;54.444;18.560;2023-04-25T11:17:51;3.97;;;3.30;;
28796;SDS011;24974;54.444;18.560;2023-04-25T11:20:24;6.22;;;3.60;;
28796;SDS011;24974;54.444;18.560;2023-04-25T11:22:59;5.68;;;3.65;;
28796;SDS011;24974;54.444;18.560;2023-04-25T11:25:33;14.50;;;5.15;;
28796;SDS011;24974;54.444;18.560;2023-04-25T11:28:04;19.80;;;4.85;;
28796;SDS011;24974;54.444;18.560;2023-04-25T11:30:34;6.63;;;4.20;;
28796;SDS011;24974;54.444;18.560;2023-04-25T11:33:05;6.38;;;4.45;;
28796;SDS011;24974;54.444;18.560;2023-04-25T11:35:36;10.75;;;4.72;;
28796;SDS011;24974;54.444;18.560;2023-04-25T11:38:07;4.13;;;3.72;;
28796;SDS011;24974;54.444;18.560;2023-04-25T11:40:38;6.70;;;4.30;;
28796;SDS011;24974;54.444;18.560;2023-04-25T11:43:09;5.85;;;5.00;;
28796;SDS011;24974;54.444;18.560;2023-04-25T11:45:40;5.90;;;4.82;;
28796;SDS011;24974;54.444;18.560;2023-04-25T11:48:12;11.60;;;4.72;;
28796;SDS011;24974;54.444;18.560;2023-04-25T11:50:43;6.88;;;5.78;;
28796;SDS011;24974;54.444;18.560;2023-04-25T11:53:13;7.90;;;5.95;;
28796;SDS011;24974;54.444;18.560;2023-04-25T11:55:44;12.32;;;5.53;;
28796;SDS011;24974;54.444;18.560;2023-04-25T11:58:15;9.95;;;6.00;;
28796;SDS011;24974;54.444;18.560;2023-04-25T12:00:46;13.30;;;7.43;;
28796;SDS011;24974;54.444;18.560;2023-04-25T12:03:17;11.10;;;6.80;;
28796;SDS011;24974;54.444;18.560;2023-04-25T12:05:49;10.20;;;6.88;;
28796;SDS011;24974;54.444;18.560;2023-04-25T12:08:21;9.95;;;7.97;;
28796;SDS011;24974;54.444;18.560;2023-04-25T12:10:52;8.95;;;6.85;;
28796;SDS011;24974;54.444;18.560;2023-04-25T12:13:25;11.40;;;7.65;;
28796;SDS011;24974;54.444;18.560;2023-04-25T12:15:58;13.07;;;8.45;;
28796;SDS011;24974;54.444;18.560;2023-04-25T12:18:30;11.48;;;7.20;;
28796;SDS011;24974;54.444;18.560;2023-04-25T12:21:01;11.13;;;7.78;;
28796;SDS011;24974;54.444;18.560;2023-04-25T12:23:35;8.60;;;7.35;;
28796;SDS011;24974;54.444;18.560;2023-04-25T12:26:09;13.73;;;8.05;;
28796;SDS011;24974;54.444;18.560;2023-04-25T12:28:44;18.42;;;7.60;;
28796;SDS011;24974;54.444;18.560;2023-04-25T12:31:17;10.25;;;7.90;;
28796;SDS011;24974;54.444;18.560;2023-04-25T12:33:48;13.75;;;8.60;;
28796;SDS011;24974;54.444;18.560;2023-04-25T12:36:19;9.55;;;8.25;;
28796;SDS011;24974;54.444;18.560;2023-04-25T12:38:49;10.73;;;8.05;;
28796;SDS011;24974;54.444;18.560;2023-04-25T12:41:20;11.02;;;8.35;;
28796;SDS011;24974;54.444;18.560;2023-04-25T12:43:51;10.15;;;8.07;;
28796;SDS011;24974;54.444;18.560;2023-04-25T12:46:22;17.10;;;8.23;;
28796;SDS011;24974;54.444;18.560;2023-04-25T12:48:55;13.77;;;8.13;;
28796;SDS011;24974;54.444;18.560;2023-04-25T12:51:27;14.85;;;8.82;;
28796;SDS011;24974;54.444;18.560;2023-04-25T12:54:01;12.23;;;8.35;;
28796;SDS011;24974;54.444;18.560;2023-04-25T12:56:33;11.00;;;8.55;;
28796;SDS011;24974;54.444;18.560;2023-04-25T12:59:05;12.65;;;8.57;;
28796;SDS011;24974;54.444;18.560;2023-04-25T13:01:36;16.35;;;7.68;;
28796;SDS011;24974;54.444;18.560;2023-04-25T13:04:07;13.43;;;8.48;;
28796;SDS011;24974;54.444;18.560;2023-04-25T13:06:37;11.90;;;8.07;;
28796;SDS011;24974;54.444;18.560;2023-04-25T13:09:08;14.05;;;7.45;;
28796;SDS011;24974;54.444;18.560;2023-04-25T13:11:39;11.25;;;7.43;;
28796;SDS011;24974;54.444;18.560;2023-04-25T13:14:11;11.45;;;7.75;;
28796;SDS011;24974;54.444;18.560;2023-04-25T13:16:42;8.80;;;7.03;;
28796;SDS011;24974;54.444;18.560;2023-04-25T13:19:13;10.32;;;7.03;;
28796;SDS011;24974;54.444;18.560;2023-04-25T13:21:44;11.85;;;6.93;;
28796;SDS011;24974;54.444;18.560;2023-04-25T13:24:14;9.93;;;7.25;;
28796;SDS011;24974;54.444;18.560;2023-04-25T13:26:46;11.98;;;7.93;;
28796;SDS011;24974;54.444;18.560;2023-04-25T13:29:16;9.65;;;7.40;;
28796;SDS011;24974;54.444;18.560;2023-04-25T13:31:47;10.48;;;6.70;;
28796;SDS011;24974;54.444;18.560;2023-04-25T13:34:18;8.50;;;6.47;;
28796;SDS011;24974;54.444;18.560;2023-04-25T13:36:49;10.32;;;7.78;;
28796;SDS011;24974;54.444;18.560;2023-04-25T13:39:20;8.85;;;6.57;;
28796;SDS011;24974;54.444;18.560;2023-04-25T13:41:51;8.57;;;7.13;;
28796;SDS011;24974;54.444;18.560;2023-04-25T13:44:21;8.10;;;6.28;;
28796;SDS011;24974;54.444;18.560;2023-04-25T13:46:52;10.90;;;6.40;;
28796;SDS011;24974;54.444;18.560;2023-04-25T13:49:23;10.07;;;6.20;;
28796;SDS011;24974;54.444;18.560;2023-04-25T13:51:54;10.73;;;5.82;;
28796;SDS011;24974;54.444;18.560;2023-04-25T13:54:25;7.85;;;6.25;;
28796;SDS011;24974;54.444;18.560;2023-04-25T13:56:56;8.77;;;6.78;;
28796;SDS011;24974;54.444;18.560;2023-04-25T13:59:29;9.55;;;6.25;;
28796;SDS011;24974;54.444;18.560;2023-04-25T14:02:00;7.75;;;6.47;;
28796;SDS011;24974;54.444;18.560;2023-04-25T14:04:30;8.93;;;6.80;;
28796;SDS011;24974;54.444;18.560;2023-04-25T14:07:02;11.02;;;7.20;;
28796;SDS011;24974;54.444;18.560;2023-04-25T14:09:33;12.70;;;7.68;;
28796;SDS011;24974;54.444;18.560;2023-04-25T14:12:04;11.70;;;7.65;;
28796;SDS011;24974;54.444;18.560;2023-04-25T14:14:36;9.50;;;7.60;;
28796;SDS011;24974;54.444;18.560;2023-04-25T14:17:08;12.48;;;7.93;;
28796;SDS011;24974;54.444;18.560;2023-04-25T14:19:39;10.63;;;7.93;;
28796;SDS011;24974;54.444;18.560;2023-04-25T14:22:14;10.18;;;8.00;;
28796;SDS011;24974;54.444;18.560;2023-04-25T14:24:48;12.57;;;7.93;;
28796;SDS011;24974;54.444;18.560;2023-04-25T14:27:19;10.50;;;6.22;;
28796;SDS011;24974;54.444;18.560;2023-04-25T14:29:50;14.20;;;5.82;;
28796;SDS011;24974;54.444;18.560;2023-04-25T14:32:21;11.18;;;4.20;;
28796;SDS011;24974;54.444;18.560;2023-04-25T14:34:52;8.70;;;4.00;;
28796;SDS011;24974;54.444;18.560;2023-04-25T14:37:22;13.35;;;4.38;;
28796;SDS011;24974;54.444;18.560;2023-04-25T14:39:53;11.20;;;4.25;;
28796;SDS011;24974;54.444;18.560;2023-04-25T14:42:24;13.95;;;4.82;;
28796;SDS011;24974;54.444;18.560;2023-04-25T14:44:54;17.15;;;4.40;;
28796;SDS011;24974;54.444;18.560;2023-04-25T14:47:26;13.10;;;4.40;;
28796;SDS011;24974;54.444;18.560;2023-04-25T14:49:57;12.60;;;4.68;;
28796;SDS011;24974;54.444;18.560;2023-04-25T14:52:28;13.05;;;4.93;;
28796;SDS011;24974;54.444;18.560;2023-04-25T14:54:59;15.75;;;4.55;;
28796;SDS011;24974;54.444;18.560;2023-04-25T14:57:35;16.83;;;4.80;;
28796;SDS011;24974;54.444;18.560;2023-04-25T15:00:06;12.40;;;5.15;;
28796;SDS011;24974;54.444;18.560;2023-04-25T15:02:39;14.60;;;6.53;;
28796;SDS011;24974;54.444;18.560;2023-04-25T15:05:10;13.27;;;4.50;;
28796;SDS011;24974;54.444;18.560;2023-04-25T15:07:41;13.88;;;5.47;;
28796;SDS011;24974;54.444;18.560;2023-04-25T15:10:12;13.35;;;4.45;;
28796;SDS011;24974;54.444;18.560;2023-04-25T15:12:46;10.70;;;4.38;;
28796;SDS011;24974;54.444;18.560;2023-04-25T15:15:17;10.80;;;4.55;;
28796;SDS011;24974;54.444;18.560;2023-04-25T15:17:48;16.23;;;4.85;;
28796;SDS011;24974;54.444;18.560;2023-04-25T15:20:20;15.85;;;5.00;;